createdAt,value
2018-03-28T00:00:50.745Z,49.20
2018-03-28T00:03:20.192Z,49.83
2018-03-28T00:05:49.996Z,51.95
2018-03-28T00:08:19.257Z,47.28
2018-03-28T00:10:48.515Z,48.30
2018-03-28T00:13:17.671Z,44.13
2018-03-28T00:15:47.124Z,47.22
2018-03-28T00:18:16.261Z,48.85
2018-03-28T00:20:45.371Z,50.17
2018-03-28T00:23:14.489Z,48.83
2018-03-28T00:25:43.857Z,48.42
2018-03-28T00:28:13.217Z,49.55
2018-03-28T00:30:42.321Z,46.53
2018-03-28T00:33:11.474Z,48.50
2018-03-28T00:35:40.563Z,49.47
2018-03-28T00:38:09.755Z,46.88
2018-03-28T00:40:38.903Z,46.42
2018-03-28T00:43:08.210Z,45.10
2018-03-28T00:45:38.198Z,44.63
2018-03-28T00:48:07.368Z,42.45
2018-03-28T00:50:36.411Z,42.97
2018-03-28T00:53:05.702Z,42.10
2018-03-28T00:55:34.778Z,43.90
2018-03-28T00:58:03.941Z,44.20
2018-03-28T01:00:33.095Z,43.33
2018-03-28T01:03:02.141Z,44.47
2018-03-28T01:05:31.569Z,44.85
2018-03-28T01:08:00.573Z,47.40
2018-03-28T01:10:29.730Z,45.65
2018-03-28T01:12:59.042Z,45.80
2018-03-28T01:15:28.175Z,44.60
2018-03-28T01:17:57.356Z,47.25
2018-03-28T01:20:26.602Z,46.22
2018-03-28T01:22:55.743Z,47.75
2018-03-28T01:25:24.941Z,49.47
2018-03-28T01:27:54.283Z,49.25
2018-03-28T01:30:23.425Z,48.78
2018-03-28T01:32:52.626Z,49.72
2018-03-28T01:35:21.657Z,52.92
2018-03-28T01:37:50.827Z,51.08
2018-03-28T01:40:20.068Z,51.28
2018-03-28T01:42:49.835Z,55.75
2018-03-28T01:45:18.817Z,56.70
2018-03-28T01:47:47.780Z,59.13
2018-03-28T01:50:16.909Z,56.42
2018-03-28T01:52:45.901Z,61.80
2018-03-28T01:55:15.456Z,60.15
2018-03-28T01:57:44.449Z,62.33
2018-03-28T02:00:13.657Z,63.78
2018-03-28T02:02:42.819Z,61.60
2018-03-28T02:05:11.776Z,64.45
2018-03-28T02:07:40.885Z,62.22
2018-03-28T02:10:10.126Z,68.35
2018-03-28T02:12:39.547Z,64.37
2018-03-28T02:15:08.785Z,64.85
2018-03-28T02:17:38.237Z,65.40
2018-03-28T02:20:08.220Z,69.75
2018-03-28T02:22:37.449Z,65.60
2018-03-28T02:25:06.664Z,66.43
2018-03-28T02:27:35.742Z,65.47
2018-03-28T02:30:05.077Z,69.55
2018-03-28T02:32:34.249Z,73.68
2018-03-28T02:35:03.459Z,67.03
2018-03-28T02:37:32.711Z,68.28
2018-03-28T02:40:01.924Z,69.93
2018-03-28T02:42:31.210Z,69.90
2018-03-28T02:45:00.301Z,69.07
2018-03-28T02:47:29.678Z,72.45
2018-03-28T02:49:58.822Z,73.97
2018-03-28T02:52:28.034Z,78.03
2018-03-28T02:54:57.342Z,74.20
2018-03-28T02:57:26.605Z,75.65
2018-03-28T02:59:55.739Z,76.20
2018-03-28T03:02:24.734Z,75.30
2018-03-28T03:04:53.883Z,68.45
2018-03-28T03:07:22.871Z,59.80
2018-03-28T03:09:51.993Z,56.35
2018-03-28T03:12:21.015Z,54.47
2018-03-28T03:14:50.217Z,54.55
2018-03-28T03:17:19.181Z,52.97
2018-03-28T03:19:48.409Z,50.15
2018-03-28T03:22:17.648Z,52.30
2018-03-28T03:24:46.895Z,50.50
2018-03-28T03:27:15.949Z,49.85
2018-03-28T03:29:45.081Z,50.97
2018-03-28T03:32:14.083Z,50.55
2018-03-28T03:34:43.082Z,49.17
2018-03-28T03:37:12.350Z,49.55
2018-03-28T03:39:41.497Z,45.75
2018-03-28T03:42:10.783Z,50.08
2018-03-28T03:44:39.850Z,48.58
2018-03-28T03:47:09.082Z,50.40
2018-03-28T03:49:38.146Z,53.55
2018-03-28T03:52:07.139Z,53.63
2018-03-28T03:54:36.249Z,52.75
2018-03-28T03:57:05.586Z,53.85
2018-03-28T03:59:34.681Z,53.22
2018-03-28T04:02:04.467Z,54.65
2018-03-28T04:04:33.477Z,55.83
2018-03-28T04:07:02.569Z,58.95
2018-03-28T04:09:32.374Z,58.08
2018-03-28T04:12:01.545Z,57.03
2018-03-28T04:14:30.523Z,53.95
2018-03-28T04:16:59.541Z,57.95
2018-03-28T04:19:28.759Z,55.12
2018-03-28T04:21:57.677Z,58.13
2018-03-28T04:24:26.858Z,56.92
2018-03-28T04:26:55.848Z,60.28
2018-03-28T04:29:25.289Z,57.75
2018-03-28T04:31:54.340Z,52.95
2018-03-28T04:34:23.279Z,49.17
2018-03-28T04:36:52.327Z,53.87
2018-03-28T04:39:21.523Z,53.95
2018-03-28T04:41:50.594Z,50.20
2018-03-28T04:44:19.789Z,50.00
2018-03-28T04:46:49.223Z,51.78
2018-03-28T04:49:18.216Z,47.70
2018-03-28T04:51:47.247Z,47.90
2018-03-28T04:54:16.205Z,46.40
2018-03-28T04:56:45.473Z,48.65
2018-03-28T04:59:14.685Z,51.35
2018-03-28T05:01:44.047Z,49.50
2018-03-28T05:04:13.401Z,46.20
2018-03-28T05:06:42.437Z,47.08
2018-03-28T05:09:12.044Z,48.30
2018-03-28T05:11:41.105Z,46.53
2018-03-28T05:14:10.255Z,45.88
2018-03-28T05:16:39.604Z,46.10
2018-03-28T05:19:08.650Z,43.22
2018-03-28T05:21:37.598Z,44.78
2018-03-28T05:24:06.754Z,42.13
2018-03-28T05:26:35.921Z,40.12
2018-03-28T05:29:05.280Z,42.40
2018-03-28T05:31:34.342Z,43.22
2018-03-28T05:34:03.500Z,44.75
2018-03-28T05:36:32.782Z,44.25
2018-03-28T05:39:01.867Z,44.70
2018-03-28T05:41:31.113Z,45.88
2018-03-28T05:44:00.210Z,42.03
2018-03-28T05:46:29.260Z,42.15
2018-03-28T05:48:58.455Z,46.22
2018-03-28T05:51:27.684Z,40.70
2018-03-28T05:53:56.730Z,41.22
2018-03-28T05:56:26.033Z,43.63
2018-03-28T05:58:55.294Z,48.30
2018-03-28T06:01:26.085Z,43.38
2018-03-28T06:03:55.443Z,42.58
2018-03-28T06:06:24.650Z,43.58
2018-03-28T06:08:53.995Z,41.75
2018-03-28T06:11:23.076Z,40.90
2018-03-28T06:13:52.294Z,37.15
2018-03-28T06:16:21.488Z,36.28
2018-03-28T06:18:50.898Z,37.03
2018-03-28T06:21:20.262Z,36.58
2018-03-28T06:23:49.542Z,36.00
2018-03-28T06:26:18.672Z,32.45
2018-03-28T06:28:48.101Z,31.92
2018-03-28T06:31:17.264Z,33.33
2018-03-28T06:33:46.544Z,30.98
2018-03-28T06:36:15.800Z,28.83
2018-03-28T06:38:44.828Z,29.50
2018-03-28T06:41:14.085Z,31.45
2018-03-28T06:43:43.383Z,32.33
2018-03-28T06:46:12.479Z,33.58
2018-03-28T06:48:41.618Z,34.15
2018-03-28T06:51:11.041Z,38.45
2018-03-28T06:53:40.383Z,36.08
2018-03-28T06:56:09.683Z,34.58
2018-03-28T06:58:38.772Z,32.03
2018-03-28T07:01:08.025Z,33.25
2018-03-28T07:03:37.038Z,34.17
2018-03-28T07:06:06.110Z,33.67
2018-03-28T07:08:35.332Z,37.75
2018-03-28T07:11:04.668Z,36.30
2018-03-28T07:13:33.909Z,37.80
2018-03-28T07:16:03.264Z,33.88
2018-03-28T07:18:32.447Z,36.17
2018-03-28T07:21:01.782Z,45.60
2018-03-28T07:23:30.962Z,33.78
2018-03-28T07:26:00.167Z,31.73
2018-03-28T07:28:29.874Z,30.12
2018-03-28T07:30:58.846Z,31.42
2018-03-28T07:33:28.372Z,35.03
2018-03-28T07:35:57.679Z,31.12
2018-03-28T07:38:26.878Z,31.33
2018-03-28T07:40:56.046Z,30.23
2018-03-28T07:43:25.268Z,28.17
2018-03-28T07:45:54.419Z,29.27
2018-03-28T07:48:23.562Z,28.93
2018-03-28T07:50:52.702Z,27.20
2018-03-28T07:53:22.166Z,25.80
2018-03-28T07:55:51.686Z,24.27
2018-03-28T07:58:20.810Z,25.93
2018-03-28T08:00:50.165Z,23.73
2018-03-28T08:03:19.409Z,24.87
2018-03-28T08:05:48.575Z,23.03
2018-03-28T08:08:18.591Z,22.30
2018-03-28T08:10:50.948Z,21.23
2018-03-28T08:13:20.559Z,21.90
2018-03-28T08:15:49.931Z,20.63
2018-03-28T08:18:19.109Z,20.13
2018-03-28T08:20:48.366Z,20.73
2018-03-28T08:23:17.673Z,21.43
2018-03-28T08:25:47.213Z,21.03
2018-03-28T08:28:16.477Z,22.23
2018-03-28T08:30:45.665Z,21.60
2018-03-28T08:33:14.822Z,23.23
2018-03-28T08:35:44.110Z,21.50
2018-03-28T08:38:13.277Z,20.17
2018-03-28T08:40:42.426Z,23.33
2018-03-28T08:43:11.605Z,23.07
2018-03-28T08:45:40.971Z,23.67
2018-03-28T08:48:10.119Z,25.50
2018-03-28T08:50:39.207Z,25.43
2018-03-28T08:53:08.433Z,22.77
2018-03-28T08:55:37.598Z,23.03
2018-03-28T08:58:06.852Z,22.07
2018-03-28T09:00:36.774Z,21.13
2018-03-28T09:03:05.907Z,22.50
2018-03-28T09:05:35.330Z,21.70
2018-03-28T09:08:04.542Z,21.43
2018-03-28T09:10:33.619Z,21.97
2018-03-28T09:13:02.765Z,23.23
2018-03-28T09:15:31.963Z,22.60
2018-03-28T09:18:01.060Z,24.57
2018-03-28T09:20:30.349Z,26.03
2018-03-28T09:22:59.574Z,24.83
2018-03-28T09:25:28.647Z,24.27
2018-03-28T09:27:58.107Z,25.23
2018-03-28T09:30:27.325Z,25.20
2018-03-28T09:32:56.556Z,21.63
2018-03-28T09:35:25.650Z,23.10
2018-03-28T09:37:54.844Z,22.95
2018-03-28T09:40:23.989Z,48.70
2018-03-28T09:42:53.117Z,28.53
2018-03-28T09:45:22.342Z,25.13
2018-03-28T09:47:52.267Z,26.57
2018-03-28T09:50:21.352Z,24.53
2018-03-28T09:52:50.304Z,21.00
2018-03-28T09:55:19.492Z,23.48
2018-03-28T09:57:48.597Z,24.40
2018-03-28T10:00:23.683Z,25.83
2018-03-28T10:02:58.547Z,24.67
2018-03-28T10:05:33.512Z,25.45
2018-03-28T10:08:02.744Z,25.42
2018-03-28T10:10:31.827Z,22.92
2018-03-28T10:13:01.011Z,25.48
2018-03-28T10:15:30.354Z,25.80
2018-03-28T10:17:59.775Z,26.87
2018-03-28T10:20:28.990Z,26.10
2018-03-28T10:22:58.550Z,26.10
2018-03-28T10:25:27.829Z,33.07
2018-03-28T10:27:57.045Z,26.83
2018-03-28T10:30:26.122Z,24.23
2018-03-28T10:32:55.323Z,23.27
2018-03-28T10:35:24.582Z,29.13
2018-03-28T10:37:53.749Z,25.77
2018-03-28T10:40:23.234Z,29.03
2018-03-28T10:42:52.485Z,27.80
2018-03-28T10:45:22.356Z,26.73
2018-03-28T10:47:51.521Z,26.13
2018-03-28T10:50:20.677Z,29.60
2018-03-28T10:52:49.998Z,26.03
2018-03-28T10:55:19.046Z,27.00
2018-03-28T10:57:48.517Z,27.27
2018-03-28T11:00:17.806Z,28.37
2018-03-28T11:02:47.103Z,27.63
2018-03-28T11:05:16.287Z,27.60
2018-03-28T11:07:45.505Z,26.73
2018-03-28T11:10:14.881Z,29.27
2018-03-28T11:12:44.261Z,29.43
2018-03-28T11:15:13.615Z,29.63
2018-03-28T11:17:42.833Z,28.37
2018-03-28T11:20:12.577Z,32.93
2018-03-28T11:22:41.838Z,31.83
2018-03-28T11:25:10.883Z,31.60
2018-03-28T11:27:40.199Z,30.47
2018-03-28T11:30:09.299Z,29.80
2018-03-28T11:32:38.459Z,30.07
2018-03-28T11:35:07.649Z,29.63
2018-03-28T11:37:36.893Z,29.00
2018-03-28T11:40:06.154Z,30.10
2018-03-28T11:42:35.291Z,32.43
2018-03-28T11:45:04.489Z,33.92
2018-03-28T11:47:33.859Z,32.08
2018-03-28T11:50:03.044Z,33.40
2018-03-28T11:52:32.145Z,29.63
2018-03-28T11:55:01.532Z,31.37
2018-03-28T11:57:30.690Z,32.03
2018-03-28T11:59:59.767Z,30.25
2018-03-28T12:02:29.231Z,31.02
2018-03-28T12:04:58.445Z,30.45
2018-03-28T12:07:27.544Z,27.30
2018-03-28T12:09:56.685Z,27.90
2018-03-28T12:12:26.040Z,28.75
2018-03-28T12:14:55.251Z,30.52
2018-03-28T12:17:24.487Z,30.60
2018-03-28T12:19:53.750Z,30.23
2018-03-28T12:22:22.823Z,31.62
2018-03-28T12:24:51.813Z,30.77
2018-03-28T12:27:21.054Z,34.75
2018-03-28T12:29:50.170Z,33.63
2018-03-28T12:32:19.439Z,32.47
2018-03-28T12:34:48.989Z,31.58
2018-03-28T12:37:18.096Z,30.95
2018-03-28T12:39:47.162Z,32.33
2018-03-28T12:42:16.515Z,29.10
2018-03-28T12:44:45.721Z,28.90
2018-03-28T12:47:14.740Z,29.20
2018-03-28T12:49:44.150Z,29.50
2018-03-28T12:52:13.224Z,29.17
2018-03-28T12:54:42.475Z,29.87
2018-03-28T12:57:11.578Z,32.13
2018-03-28T12:59:40.647Z,28.90
2018-03-28T13:02:09.803Z,28.65
2018-03-28T13:04:39.150Z,28.52
2018-03-28T13:07:08.585Z,29.08
2018-03-28T13:09:38.666Z,31.48
2018-03-28T13:12:07.917Z,28.85
2018-03-28T13:14:37.213Z,30.83
2018-03-28T13:17:06.395Z,29.10
2018-03-28T13:19:35.605Z,30.17
2018-03-28T13:22:04.668Z,29.10
2018-03-28T13:24:34.020Z,28.17
2018-03-28T13:27:03.428Z,27.40
2018-03-28T13:29:32.558Z,29.20
2018-03-28T13:32:02.612Z,26.83
2018-03-28T13:34:31.917Z,28.58
2018-03-28T13:37:01.014Z,26.98
2018-03-28T13:39:30.327Z,27.62
2018-03-28T13:41:59.479Z,27.33
2018-03-28T13:44:28.678Z,27.50
2018-03-28T13:46:58.036Z,30.05
2018-03-28T13:49:27.093Z,28.27
2018-03-28T13:51:56.422Z,31.40
2018-03-28T13:54:25.601Z,30.90
2018-03-28T13:56:54.662Z,31.95
2018-03-28T13:59:24.124Z,30.25
2018-03-28T14:01:54.094Z,33.75
2018-03-28T14:04:23.278Z,29.92
2018-03-28T14:06:52.488Z,31.45
2018-03-28T14:09:21.733Z,31.12
2018-03-28T14:11:51.235Z,30.12
2018-03-28T14:14:20.647Z,30.67
2018-03-28T14:16:49.793Z,33.47
2018-03-28T14:19:18.831Z,33.13
2018-03-28T14:21:48.016Z,32.03
2018-03-28T14:24:17.450Z,32.72
2018-03-28T14:26:46.754Z,31.25
2018-03-28T14:29:15.811Z,30.65
2018-03-28T14:31:45.280Z,32.10
2018-03-28T14:34:15.125Z,35.60
2018-03-28T14:36:44.221Z,35.25
2018-03-28T14:39:13.344Z,36.15
2018-03-28T14:41:42.482Z,37.67
2018-03-28T14:44:11.739Z,36.70
2018-03-28T14:46:41.044Z,35.95
2018-03-28T14:49:10.077Z,39.10
2018-03-28T14:51:39.591Z,40.90
2018-03-28T14:54:08.687Z,40.65
2018-03-28T14:56:37.932Z,38.65
2018-03-28T14:59:07.042Z,34.60
2018-03-28T15:01:36.134Z,35.15
2018-03-28T15:04:05.379Z,36.08
2018-03-28T15:06:34.736Z,39.78
2018-03-28T15:09:03.989Z,38.03
2018-03-28T15:11:33.479Z,33.65
2018-03-28T15:14:02.574Z,33.80
2018-03-28T15:16:31.826Z,33.90
2018-03-28T15:19:01.031Z,34.63
2018-03-28T15:21:30.192Z,34.40
2018-03-28T15:23:59.401Z,37.20
2018-03-28T15:26:28.467Z,35.45
2018-03-28T15:28:58.098Z,39.13
2018-03-28T15:31:27.526Z,44.60
2018-03-28T15:33:56.535Z,37.75
2018-03-28T15:36:25.721Z,45.45
2018-03-28T15:38:55.008Z,41.03
2018-03-28T15:41:24.110Z,42.28
2018-03-28T15:43:53.267Z,39.45
2018-03-28T15:46:22.369Z,51.05
2018-03-28T15:48:51.557Z,185.15
2018-03-28T15:51:20.632Z,46.15
2018-03-28T15:53:49.667Z,45.38
2018-03-28T15:56:18.640Z,46.92
2018-03-28T15:58:47.730Z,43.22
2018-03-28T16:01:16.981Z,45.30
2018-03-28T16:03:46.241Z,44.55
2018-03-28T16:06:15.381Z,45.08
2018-03-28T16:08:44.606Z,46.35
2018-03-28T16:11:13.787Z,45.38
2018-03-28T16:13:42.914Z,44.17
2018-03-28T16:16:12.221Z,47.88
2018-03-28T16:18:41.413Z,48.05
2018-03-28T16:21:10.630Z,47.03
2018-03-28T16:23:39.623Z,50.55
2018-03-28T16:26:08.768Z,53.00
2018-03-28T16:28:37.946Z,55.00
2018-03-28T16:31:07.002Z,54.75
2018-03-28T16:33:36.153Z,57.15
2018-03-28T16:36:05.244Z,60.45
2018-03-28T16:38:34.390Z,60.10
2018-03-28T16:41:03.607Z,61.72
2018-03-28T16:43:32.703Z,62.58
2018-03-28T16:46:01.896Z,63.80
2018-03-28T16:48:31.038Z,63.65
2018-03-28T16:51:00.102Z,64.18
2018-03-28T16:53:29.332Z,64.55
2018-03-28T16:55:58.481Z,63.92
2018-03-28T16:58:28.298Z,56.92
2018-03-28T17:00:57.579Z,67.93
2018-03-28T17:03:27.130Z,62.15
2018-03-28T17:05:56.443Z,58.38
2018-03-28T17:08:25.529Z,65.97
2018-03-28T17:10:54.795Z,54.28
2018-03-28T17:13:24.199Z,53.70
2018-03-28T17:15:53.567Z,57.20
2018-03-28T17:18:22.743Z,51.83
2018-03-28T17:20:51.895Z,41.92
2018-03-28T17:23:21.046Z,45.12
2018-03-28T17:25:50.485Z,46.92
2018-03-28T17:28:19.732Z,46.97
2018-03-28T17:30:48.838Z,48.53
2018-03-28T17:33:17.981Z,47.30
2018-03-28T17:35:47.217Z,41.25
2018-03-28T17:38:16.447Z,42.58
2018-03-28T17:40:45.641Z,41.00
2018-03-28T17:43:14.679Z,40.60
2018-03-28T17:45:44.136Z,40.20
2018-03-28T17:48:13.333Z,39.78
2018-03-28T17:50:42.677Z,43.33
2018-03-28T17:53:11.877Z,45.40
2018-03-28T17:55:41.128Z,41.53
2018-03-28T17:58:10.381Z,40.38
2018-03-28T18:00:39.739Z,38.88
2018-03-28T18:03:09.036Z,39.33
2018-03-28T18:05:38.202Z,40.20
2018-03-28T18:08:07.441Z,44.50
2018-03-28T18:10:37.312Z,47.30
2018-03-28T18:13:06.743Z,50.22
2018-03-28T18:15:35.933Z,47.03
2018-03-28T18:18:05.045Z,45.05
2018-03-28T18:20:34.603Z,48.08
2018-03-28T18:23:03.681Z,45.78
2018-03-28T18:25:32.975Z,46.33
2018-03-28T18:28:02.349Z,45.63
2018-03-28T18:30:31.745Z,46.05
2018-03-28T18:33:01.048Z,44.95
2018-03-28T18:35:30.238Z,43.10
2018-03-28T18:37:59.295Z,45.97
2018-03-28T18:40:28.375Z,51.37
2018-03-28T18:42:57.508Z,54.55
2018-03-28T18:45:26.721Z,103.15
2018-03-28T18:47:56.524Z,57.45
2018-03-28T18:50:25.918Z,66.18
2018-03-28T18:52:55.050Z,61.03
2018-03-28T18:55:24.366Z,59.58
2018-03-28T18:57:53.524Z,60.45
2018-03-28T19:00:22.769Z,60.92
2018-03-28T19:02:52.138Z,62.00
2018-03-28T19:05:21.391Z,68.10
2018-03-28T19:07:50.752Z,69.25
2018-03-28T19:10:20.810Z,72.75
2018-03-28T19:12:50.194Z,76.78
2018-03-28T19:15:19.357Z,79.47
2018-03-28T19:17:48.461Z,76.22
2018-03-28T19:20:17.710Z,70.87
2018-03-28T19:22:46.906Z,71.85
2018-03-28T19:25:16.083Z,73.07
2018-03-28T19:27:45.676Z,83.80
2018-03-28T19:30:14.805Z,86.22
2018-03-28T19:32:43.936Z,82.18
2018-03-28T19:35:13.763Z,80.12
2018-03-28T19:37:43.185Z,77.55
2018-03-28T19:40:12.317Z,67.37
2018-03-28T19:42:41.563Z,73.85
2018-03-28T19:45:10.586Z,61.30
2018-03-28T19:47:39.742Z,60.55
2018-03-28T19:50:09.050Z,66.43
2018-03-28T19:52:38.149Z,65.07
2018-03-28T19:55:07.443Z,63.38
2018-03-28T19:57:36.660Z,66.25
2018-03-28T20:00:05.882Z,57.28
2018-03-28T20:02:35.315Z,57.00
2018-03-28T20:05:04.714Z,58.10
2018-03-28T20:07:33.878Z,58.92
2018-03-28T20:10:03.066Z,57.58
2018-03-28T20:12:32.444Z,56.55
2018-03-28T20:15:01.511Z,56.65
2018-03-28T20:17:30.566Z,54.53
2018-03-28T20:19:59.792Z,55.63
2018-03-28T20:22:29.055Z,56.70
2018-03-28T20:24:58.281Z,53.75
2018-03-28T20:27:27.462Z,52.88
2018-03-28T20:29:56.439Z,54.08
2018-03-28T20:32:25.534Z,54.67
2018-03-28T20:34:54.741Z,54.28
2018-03-28T20:37:23.873Z,54.42
2018-03-28T20:39:53.082Z,56.15
2018-03-28T20:42:22.353Z,54.15
2018-03-28T20:44:51.473Z,54.30
2018-03-28T20:47:20.870Z,56.83
2018-03-28T20:49:50.021Z,55.83
2018-03-28T20:52:19.009Z,54.72
2018-03-28T20:54:48.266Z,54.10
2018-03-28T20:57:17.429Z,52.13
2018-03-28T20:59:46.764Z,52.90
2018-03-28T21:02:16.029Z,54.38
2018-03-28T21:04:45.422Z,61.83
2018-03-28T21:07:14.564Z,62.03
2018-03-28T21:09:43.859Z,56.65
2018-03-28T21:12:13.171Z,60.65
2018-03-28T21:14:42.345Z,60.72
2018-03-28T21:17:11.755Z,57.85
2018-03-28T21:19:41.434Z,57.33
2018-03-28T21:22:10.613Z,59.72
2018-03-28T21:24:40.561Z,55.45
2018-03-28T21:27:09.835Z,51.42
2018-03-28T21:29:38.938Z,48.53
2018-03-28T21:32:08.049Z,47.42
2018-03-28T21:34:37.184Z,45.10
2018-03-28T21:37:06.346Z,43.67
2018-03-28T21:39:35.679Z,43.85
2018-03-28T21:42:04.813Z,46.13
2018-03-28T21:44:34.127Z,40.15
2018-03-28T21:47:03.460Z,41.33
2018-03-28T21:49:32.617Z,40.60
2018-03-28T21:52:02.175Z,43.75
2018-03-28T21:54:31.363Z,42.38
2018-03-28T21:57:00.474Z,42.50
2018-03-28T21:59:29.717Z,45.45
2018-03-28T22:01:59.041Z,49.25
2018-03-28T22:04:28.242Z,45.10
2018-03-28T22:06:57.469Z,44.30
2018-03-28T22:09:26.625Z,43.78
2018-03-28T22:11:55.837Z,43.22
2018-03-28T22:14:25.150Z,45.92
2018-03-28T22:16:55.719Z,44.25
2018-03-28T22:19:24.847Z,44.25
2018-03-28T22:21:53.958Z,45.47
2018-03-28T22:24:23.159Z,43.90
2018-03-28T22:26:52.332Z,45.25
2018-03-28T22:29:21.538Z,49.05
2018-03-28T22:31:50.639Z,48.87
2018-03-28T22:34:19.748Z,49.00
2018-03-28T22:36:49.077Z,51.92
2018-03-28T22:39:18.153Z,49.13
2018-03-28T22:41:47.289Z,47.55
2018-03-28T22:44:16.334Z,46.13
2018-03-28T22:46:45.343Z,46.80
2018-03-28T22:49:14.406Z,45.95
2018-03-28T22:51:43.400Z,42.80
2018-03-28T22:54:12.496Z,43.75
2018-03-28T22:56:41.505Z,42.62
2018-03-28T22:59:11.234Z,44.80
2018-03-28T23:01:40.281Z,46.65
2018-03-28T23:04:09.392Z,52.72
2018-03-28T23:06:38.517Z,66.47
2018-03-28T23:09:07.617Z,58.90
2018-03-28T23:11:36.691Z,57.22
2018-03-28T23:14:05.875Z,50.90
2018-03-28T23:16:34.967Z,42.47
2018-03-28T23:19:04.120Z,40.95
2018-03-28T23:21:33.058Z,39.33
2018-03-28T23:24:02.301Z,38.88
2018-03-28T23:26:31.344Z,38.35
2018-03-28T23:29:00.350Z,38.70
2018-03-28T23:31:29.486Z,39.40
2018-03-28T23:33:58.429Z,37.55
2018-03-28T23:36:27.450Z,39.45
2018-03-28T23:38:56.579Z,38.88
2018-03-28T23:41:25.774Z,41.37
2018-03-28T23:43:55.422Z,41.05
2018-03-28T23:46:24.678Z,40.80
2018-03-28T23:48:53.614Z,42.78
2018-03-28T23:51:22.627Z,40.88
2018-03-28T23:53:51.861Z,41.37
2018-03-28T23:56:20.915Z,41.75
2018-03-28T23:58:49.950Z,40.58
